Архив погоды в Муслюмово

Метеограмма Муслюмово
Вторник, 14 Августа
Время местн. Темп Ветер Видим Явления Облачность нижн/средн/верх Атм. давл. Влжн Точка росы ВНГО R Сост. почвы Tg s
Напр Скр Прв ур.ст ур.м изм
21:00 +12.8° В,С-В 1 - 20 км - переменная облачность 753 760 +1.1 91% +11.3° 1 км - - - -
18:00 +16.1° штиль 0 - 20 км - преимущественно облачно 752 759 +0.5 76% +11.8° 1 км 0 - - -
15:00 +19.9° С-З 4 - 20 км - преимущественно облачно 751 758 +0.6 57% +11.1° 1 км - - - -
12:00 +22° С-З 4 - 20 км - преимущественно облачно 751 757 +0.6 48% +10.5° 1 км - - - -
09:00 +23.3° З,Ю-З 1 - 20 км - преимущественно облачно 750 757 +0.3 56% +14.1° 1 км - - - -
06:00 +16° В,Ю-В 1 - 20 км - преимущественно облачно 750 757 +0.4 84% +13.3° 1 км 0 Сухая (без трещин) - -
03:00 +15.7° штиль 0 - 20 км - преимущественно облачно 749 756 0 87% +13.5° - - - - -
00:00 +17.1° В,Ю-В 1 - 20 км - переменная облачность 749 756 +0.2 78% +13.3° более 2.5 км - - - -
Понедельник, 13 Августа
Время местн. Темп Ветер Видим Явления Облачность нижн/средн/верх Атм. давл. Влжн Точка росы ВНГО R Сост. почвы Tg s
Напр Скр Прв ур.ст ур.м изм
21:00 +18.6° В 1 - 20 км - преимущественно облачно 749 756 +0.2 78% +14.6° 1 км - - - -
18:00 +26.1° Ю,Ю-З 2 - 20 км - преимущественно облачно 749 756 -0.7 40% +11.5° 1 км 0 - - -
15:00 +29.8° З 4 - 20 км - облачно с прояснениями 750 757 -0.8 24% +7.3° 1 км - - - -
12:00 +28.7° Ю-З 4 - 20 км - преимущественно облачно 751 757 -0.8 26% +7.5° 1 км - - - -
09:00 +26° Ю,Ю-З 4 - 20 км - ясно 751 758 -0.5 46% +13.4° более 2.5 км - - - -
06:00 +15.7° В 1 - 20 км - переменная облачность 752 759 -0.2 86% +13.3° - 0 Сухая (без трещин) - -
03:00 +12.7° штиль 0 - 20 км - ясно 752 759 -0.5 95% +11.9° более 2.5 км - - - -
00:00 +15.4° В 1 - 20 км - ясно 753 760 +0.1 91% +13.9° более 2.5 км - - - -
Воскресенье, 12 Августа
Время местн. Темп Ветер Видим Явления Облачность нижн/средн/верх Атм. давл. Влжн Точка росы ВНГО R Сост. почвы Tg s
Напр Скр Прв ур.ст ур.м изм
21:00 +18.7° В,Ю-В 1 - 20 км - ясно 753 760 +0.3 85% +16.2° более 2.5 км - - - -
18:00 +26.2° С,С-З 2 - 20 км - переменная облачность 753 759 -0.5 53% +15.9° 1 км 0 - - -
15:00 +28.5° С-З 5 - 20 км - переменная облачность 753 760 -0.5 42% +14.2° 1 км - - - -
12:00 +28.9° С-З 3 - 20 км - переменная облачность 753 760 -0.5 41% +14.3° 1 км - - - -
09:00 +25.9° Ю-З 1 - 20 км - переменная облачность 754 761 -0.3 56% +16.5° 1 км - - - -
06:00 +18.2° штиль 0 - 20 км - переменная облачность 754 761 +0.3 82% +15.1° более 2.5 км 0 Влажная (без луж) - -
03:00 +15° штиль 0 - 20 км - переменная облачность 754 761 -0.2 93% +13.9° - - - - -
00:00 +17.6° В,Ю-В 1 - 20 км - переменная облачность 754 761 +0.1 90% +15.9° 1 км - - - -
Суббота, 11 Августа
Время местн. Темп Ветер Видим Явления Облачность нижн/средн/верх Атм. давл. Влжн Точка росы ВНГО R Сост. почвы Tg s
Напр Скр Прв ур.ст ур.м изм
21:00 +18° С-З 1 - 20 км - переменная облачность 754 761 +0.6 86% +15.7° 1 км - - - -
18:00 +26° С-З 4 - 20 км - переменная облачность 754 760 0 52% +15.5° 1 км 0 - - -